createdAt,value
2023-05-05T00:00:15.724Z,2.95
2023-05-05T00:02:42.521Z,2.88
2023-05-05T00:05:09.426Z,2.67
2023-05-05T00:07:36.017Z,3.28
2023-05-05T00:10:02.705Z,2.97
2023-05-05T00:12:29.216Z,2.92
2023-05-05T00:14:56.129Z,3.20
2023-05-05T00:17:23.017Z,2.63
2023-05-05T00:19:49.510Z,2.70
2023-05-05T00:22:15.970Z,2.60
2023-05-05T00:24:42.402Z,2.85
2023-05-05T00:27:08.832Z,2.88
2023-05-05T00:29:35.233Z,2.63
2023-05-05T00:32:02.996Z,2.70
2023-05-05T00:34:29.492Z,2.90
2023-05-05T00:36:56.273Z,2.83
2023-05-05T00:39:22.695Z,2.90
2023-05-05T00:41:49.109Z,3.15
2023-05-05T00:44:15.730Z,2.78
2023-05-05T00:46:43.161Z,3.10
2023-05-05T00:49:10.119Z,3.17
2023-05-05T00:51:36.576Z,3.33
2023-05-05T00:54:03.040Z,4.03
2023-05-05T00:56:29.728Z,3.17
2023-05-05T00:58:56.353Z,3.10
2023-05-05T01:01:23.098Z,3.00
2023-05-05T01:03:49.742Z,3.00
2023-05-05T01:06:40.886Z,3.30
2023-05-05T01:09:27.024Z,3.40
2023-05-05T01:12:25.911Z,3.17
2023-05-05T01:15:22.529Z,3.50
2023-05-05T01:18:07.371Z,2.95
2023-05-05T01:20:53.212Z,3.05
2023-05-05T01:23:49.709Z,3.25
2023-05-05T01:26:51.326Z,3.30
2023-05-05T01:29:55.535Z,3.60
2023-05-05T01:32:27.364Z,3.45
2023-05-05T01:34:57.266Z,2.92
2023-05-05T01:37:28.032Z,3.30
2023-05-05T01:39:59.281Z,3.30
2023-05-05T01:42:27.279Z,3.25
2023-05-05T01:44:54.552Z,3.45
2023-05-05T01:47:23.062Z,3.30
2023-05-05T01:49:50.810Z,3.08
2023-05-05T01:52:20.496Z,3.25
2023-05-05T01:54:48.688Z,3.05
2023-05-05T01:57:15.823Z,3.15
2023-05-05T01:59:42.505Z,3.10
2023-05-05T02:02:11.226Z,3.30
2023-05-05T02:04:42.153Z,3.85
2023-05-05T02:07:10.689Z,3.60
2023-05-05T02:09:38.579Z,3.05
2023-05-05T02:12:06.625Z,3.42
2023-05-05T02:14:34.234Z,3.28
2023-05-05T02:17:01.892Z,3.42
2023-05-05T02:19:38.947Z,3.28
2023-05-05T02:22:05.876Z,3.30
2023-05-05T02:24:34.402Z,3.20
2023-05-05T02:27:03.550Z,3.78
2023-05-05T02:29:37.040Z,3.53
2023-05-05T02:32:14.243Z,3.35
2023-05-05T02:34:42.753Z,3.25
2023-05-05T02:37:12.512Z,3.17
2023-05-05T02:39:45.111Z,3.40
2023-05-05T02:42:19.672Z,3.60
2023-05-05T02:44:47.548Z,3.40
2023-05-05T02:47:14.008Z,3.45
2023-05-05T02:49:40.672Z,3.20
2023-05-05T02:52:07.200Z,3.28
2023-05-05T02:54:41.452Z,3.50
2023-05-05T02:57:10.761Z,3.75
2023-05-05T03:00:05.698Z,3.17
2023-05-05T03:02:46.791Z,3.40
2023-05-05T03:05:19.583Z,3.67
2023-05-05T03:08:00.420Z,3.97
2023-05-05T03:10:31.001Z,3.47
2023-05-05T03:13:03.030Z,3.55
2023-05-05T03:15:32.552Z,3.60
2023-05-05T03:18:00.352Z,3.63
2023-05-05T03:20:27.488Z,3.45
2023-05-05T03:22:54.826Z,3.38
2023-05-05T03:25:21.397Z,3.85
2023-05-05T03:27:47.813Z,3.40
2023-05-05T03:30:14.671Z,3.58
2023-05-05T03:32:41.113Z,3.42
2023-05-05T03:35:07.864Z,4.13
2023-05-05T03:37:35.351Z,3.20
2023-05-05T03:40:03.221Z,3.13
2023-05-05T03:42:29.652Z,3.35
2023-05-05T03:44:57.133Z,3.65
2023-05-05T03:47:24.633Z,3.47
2023-05-05T03:49:51.153Z,3.25
2023-05-05T03:52:17.606Z,3.75
2023-05-05T03:54:46.017Z,3.55
2023-05-05T03:57:12.505Z,3.45
2023-05-05T03:59:38.880Z,3.50
2023-05-05T04:02:05.294Z,3.40
2023-05-05T04:04:31.723Z,3.92
2023-05-05T04:06:58.163Z,3.47
2023-05-05T04:09:24.580Z,3.45
2023-05-05T04:11:51.098Z,3.58
2023-05-05T04:14:20.714Z,3.25
2023-05-05T04:16:47.111Z,3.40
2023-05-05T04:19:13.787Z,3.63
2023-05-05T04:21:40.274Z,3.40
2023-05-05T04:24:06.801Z,3.72
2023-05-05T04:26:33.221Z,3.63
2023-05-05T04:28:59.608Z,3.70
2023-05-05T04:31:26.105Z,3.72
2023-05-05T04:33:52.590Z,4.60
2023-05-05T04:36:19.222Z,3.83
2023-05-05T04:38:45.865Z,4.40
2023-05-05T04:41:12.377Z,4.28
2023-05-05T04:43:38.932Z,4.20
2023-05-05T04:46:05.453Z,3.92
2023-05-05T04:48:31.924Z,5.93
2023-05-05T04:50:58.355Z,5.65
2023-05-05T04:53:24.994Z,6.80
2023-05-05T04:55:51.459Z,4.13
2023-05-05T04:58:17.905Z,3.40
2023-05-05T05:00:44.337Z,3.30
2023-05-05T05:03:10.911Z,2.95
2023-05-05T05:05:37.440Z,3.58
2023-05-05T05:08:04.068Z,3.63
2023-05-05T05:10:30.570Z,3.03
2023-05-05T05:12:57.033Z,3.33
2023-05-05T05:15:23.579Z,3.00
2023-05-05T05:17:50.019Z,3.10
2023-05-05T05:20:16.506Z,3.22
2023-05-05T05:22:42.981Z,3.50
2023-05-05T05:25:09.539Z,3.42
2023-05-05T05:27:36.034Z,3.28
2023-05-05T05:30:03.166Z,3.28
2023-05-05T05:32:29.790Z,3.40
2023-05-05T05:34:56.222Z,3.92
2023-05-05T05:37:22.620Z,3.15
2023-05-05T05:39:52.323Z,3.35
2023-05-05T05:42:18.904Z,3.30
2023-05-05T05:44:45.336Z,3.03
2023-05-05T05:47:11.748Z,2.42
2023-05-05T05:49:38.939Z,2.40
2023-05-05T05:52:05.922Z,2.42
2023-05-05T05:54:34.411Z,2.40
2023-05-05T05:57:01.300Z,2.45
2023-05-05T05:59:28.074Z,2.50
2023-05-05T06:01:55.454Z,2.50
2023-05-05T06:04:22.125Z,2.72
2023-05-05T06:06:48.640Z,2.53
2023-05-05T06:09:15.210Z,2.70
2023-05-05T06:11:41.644Z,2.50
2023-05-05T06:14:08.064Z,2.88
2023-05-05T06:16:34.550Z,2.72
2023-05-05T06:19:00.985Z,2.80
2023-05-05T06:21:27.671Z,2.83
2023-05-05T06:23:54.118Z,3.05
2023-05-05T06:26:21.538Z,3.33
2023-05-05T06:28:47.955Z,3.10
2023-05-05T06:31:14.463Z,3.47
2023-05-05T06:33:40.993Z,2.92
2023-05-05T06:36:07.761Z,3.20
2023-05-05T06:38:34.272Z,3.38
2023-05-05T06:41:00.763Z,3.42
2023-05-05T06:43:28.669Z,3.53
2023-05-05T06:45:55.096Z,3.40
2023-05-05T06:48:22.097Z,3.30
2023-05-05T06:50:48.733Z,3.60
2023-05-05T06:53:15.202Z,2.80
2023-05-05T06:55:46.004Z,3.28
2023-05-05T06:58:13.086Z,3.17
2023-05-05T07:00:40.914Z,2.85
2023-05-05T07:03:07.745Z,2.67
2023-05-05T07:05:34.274Z,3.63
2023-05-05T07:08:00.965Z,2.97
2023-05-05T07:10:28.057Z,2.97
2023-05-05T07:12:55.286Z,3.00
2023-05-05T07:15:28.769Z,2.95
2023-05-05T07:17:56.529Z,3.03
2023-05-05T07:20:23.293Z,3.30
2023-05-05T07:22:49.817Z,3.20
2023-05-05T07:25:16.536Z,3.40
2023-05-05T07:27:43.172Z,3.10
2023-05-05T07:30:14.000Z,2.95
2023-05-05T07:32:42.026Z,2.65
2023-05-05T07:35:09.019Z,3.13
2023-05-05T07:37:35.947Z,2.88
2023-05-05T07:40:02.352Z,3.08
2023-05-05T07:42:28.830Z,2.97
2023-05-05T07:44:55.261Z,2.70
2023-05-05T07:47:21.767Z,3.15
2023-05-05T07:49:48.275Z,2.88
2023-05-05T07:52:14.740Z,3.05
2023-05-05T07:54:42.330Z,3.20
2023-05-05T07:59:35.181Z,3.03
2023-05-05T08:02:01.598Z,3.15
2023-05-05T08:04:28.110Z,3.15
2023-05-05T08:06:54.575Z,3.30
2023-05-05T08:09:21.076Z,3.28
2023-05-05T08:11:47.606Z,3.33
2023-05-05T08:14:15.096Z,3.47
2023-05-05T08:16:41.523Z,3.80
2023-05-05T08:19:21.179Z,3.47
2023-05-05T08:21:51.664Z,3.45
2023-05-05T08:24:18.167Z,3.63
2023-05-05T08:26:44.628Z,3.65
2023-05-05T08:29:11.116Z,3.60
2023-05-05T08:31:37.613Z,3.33
2023-05-05T08:34:06.939Z,3.58
2023-05-05T08:36:33.509Z,4.07
2023-05-05T08:39:00.327Z,4.00
2023-05-05T08:41:28.026Z,4.40
2023-05-05T08:46:22.396Z,4.40
2023-05-05T08:48:49.508Z,4.38
2023-05-05T08:51:19.965Z,4.70
2023-05-05T08:54:01.946Z,4.45
2023-05-05T08:56:34.125Z,4.70
2023-05-05T08:59:02.327Z,5.20
2023-05-05T09:01:30.029Z,4.97
2023-05-05T09:03:58.618Z,5.07
2023-05-05T09:06:27.348Z,5.70
2023-05-05T09:08:54.026Z,5.70
2023-05-05T09:11:21.538Z,5.30
2023-05-05T09:13:51.372Z,5.50
2023-05-05T09:16:17.850Z,5.53
2023-05-05T09:18:45.565Z,5.00
2023-05-05T09:21:23.691Z,5.00
2023-05-05T09:24:09.122Z,4.70
2023-05-05T09:26:38.559Z,5.47
2023-05-05T09:29:05.729Z,6.20
2023-05-05T09:31:33.627Z,5.90
2023-05-05T09:34:01.337Z,5.22
2023-05-05T09:36:48.132Z,5.55
2023-05-05T09:39:19.706Z,5.28
2023-05-05T09:41:46.951Z,4.43
2023-05-05T09:44:17.357Z,5.10
2023-05-05T09:46:52.076Z,6.30
2023-05-05T09:49:25.170Z,6.30
2023-05-05T09:51:52.891Z,15.88
2023-05-05T09:54:27.664Z,5.85
2023-05-05T09:56:57.519Z,6.85
2023-05-05T09:59:24.476Z,5.75
2023-05-05T10:01:51.937Z,4.95
2023-05-05T10:04:31.074Z,4.93
2023-05-05T10:06:58.679Z,5.70
2023-05-05T10:09:26.141Z,5.72
2023-05-05T10:11:53.196Z,4.50
2023-05-05T10:14:20.381Z,5.07
2023-05-05T10:16:51.628Z,4.70
2023-05-05T10:19:21.900Z,5.30
2023-05-05T10:21:53.374Z,4.88
2023-05-05T10:24:29.368Z,4.97
2023-05-05T10:26:58.195Z,5.00
2023-05-05T10:29:37.105Z,4.68
2023-05-05T10:32:40.700Z,4.72
2023-05-05T10:35:04.102Z,4.28
2023-05-05T10:37:30.979Z,5.03
2023-05-05T10:39:58.611Z,4.75
2023-05-05T10:42:25.112Z,4.30
2023-05-05T10:44:51.660Z,5.15
2023-05-05T10:47:20.097Z,5.15
2023-05-05T10:50:01.723Z,4.97
2023-05-05T10:52:47.139Z,26.95
2023-05-05T10:55:22.402Z,15.25
2023-05-05T10:57:53.343Z,5.03
2023-05-05T11:00:38.190Z,4.72
2023-05-05T11:03:18.036Z,5.22
2023-05-05T11:06:09.325Z,4.35
2023-05-05T11:08:40.286Z,3.97
2023-05-05T11:11:07.612Z,4.50
2023-05-05T11:13:34.132Z,17.55
2023-05-05T11:16:02.158Z,4.30
2023-05-05T11:18:38.625Z,4.20
2023-05-05T11:21:16.666Z,5.28
2023-05-05T11:23:51.710Z,9.68
2023-05-05T11:26:39.174Z,4.05
2023-05-05T11:29:06.370Z,4.30
2023-05-05T11:31:32.972Z,4.47
2023-05-05T11:34:28.430Z,4.40
2023-05-05T11:37:07.664Z,3.50
2023-05-05T11:40:26.694Z,3.78
2023-05-05T11:43:05.453Z,4.40
2023-05-05T11:45:32.169Z,3.63
2023-05-05T11:48:24.085Z,2.85
2023-05-05T11:50:50.630Z,3.15
2023-05-05T11:53:19.169Z,3.10
2023-05-05T11:55:45.594Z,4.07
2023-05-05T11:58:21.562Z,3.35
2023-05-05T12:01:04.320Z,3.40
2023-05-05T12:03:35.560Z,5.53
2023-05-05T12:06:03.468Z,3.17
2023-05-05T12:11:03.888Z,3.08
2023-05-05T12:13:30.423Z,3.33
2023-05-05T12:15:56.866Z,3.53
2023-05-05T12:18:23.470Z,3.40
2023-05-05T12:20:50.027Z,3.70
2023-05-05T12:23:46.857Z,4.00
2023-05-05T12:26:31.972Z,5.10
2023-05-05T12:29:00.364Z,4.18
2023-05-05T12:31:36.770Z,7.32
2023-05-05T12:34:04.367Z,8.48
2023-05-05T12:36:31.159Z,4.60
2023-05-05T12:38:58.187Z,4.20
2023-05-05T12:41:24.624Z,4.10
2023-05-05T12:43:59.220Z,4.10
2023-05-05T12:46:44.277Z,4.10
2023-05-05T12:49:10.869Z,4.35
2023-05-05T12:51:38.929Z,3.60
2023-05-05T12:54:07.854Z,3.60
2023-05-05T12:56:40.659Z,3.53
2023-05-05T12:59:22.393Z,4.60
2023-05-05T13:01:52.763Z,3.95
2023-05-05T13:04:20.967Z,3.17
2023-05-05T13:06:49.149Z,3.10
2023-05-05T13:09:26.479Z,3.13
2023-05-05T13:11:54.646Z,2.67
2023-05-05T13:14:21.389Z,3.00
2023-05-05T13:16:47.874Z,2.80
2023-05-05T13:19:14.913Z,2.80
2023-05-05T13:21:41.777Z,2.97
2023-05-05T13:24:23.545Z,2.70
2023-05-05T13:26:55.757Z,2.40
2023-05-05T13:29:23.322Z,2.22
2023-05-05T13:31:51.731Z,2.08
2023-05-05T13:34:20.475Z,1.90
2023-05-05T13:36:47.014Z,2.30
2023-05-05T13:39:13.508Z,1.45
2023-05-05T13:41:40.061Z,1.55
2023-05-05T13:44:06.592Z,1.20
2023-05-05T13:46:33.030Z,1.10
2023-05-05T13:48:59.552Z,1.25
2023-05-05T13:51:26.030Z,1.10
2023-05-05T13:53:52.691Z,0.93
2023-05-05T13:56:19.409Z,1.30
2023-05-05T13:58:46.361Z,0.80
2023-05-05T14:01:12.821Z,1.00
2023-05-05T14:03:39.708Z,0.98
2023-05-05T14:06:07.475Z,0.70
2023-05-05T14:08:34.094Z,0.93
2023-05-05T14:11:00.524Z,0.82
2023-05-05T14:13:26.976Z,1.00
2023-05-05T14:15:53.837Z,1.00
2023-05-05T14:18:20.758Z,0.93
2023-05-05T14:20:50.459Z,1.00
2023-05-05T14:23:16.864Z,1.15
2023-05-05T14:25:43.342Z,0.90
2023-05-05T14:28:09.745Z,1.10
2023-05-05T14:30:36.181Z,1.08
2023-05-05T14:33:02.675Z,1.20
2023-05-05T14:35:30.023Z,1.30
2023-05-05T14:37:56.495Z,1.23
2023-05-05T14:40:23.040Z,1.30
2023-05-05T14:42:50.796Z,1.20
2023-05-05T14:45:17.308Z,1.00
2023-05-05T14:47:43.784Z,1.00
2023-05-05T14:50:10.857Z,1.17
2023-05-05T14:52:39.241Z,1.23
2023-05-05T14:55:07.387Z,1.77
2023-05-05T14:57:34.433Z,1.40
2023-05-05T15:00:00.896Z,1.45
2023-05-05T15:02:27.495Z,1.67
2023-05-05T15:04:53.945Z,1.60
2023-05-05T15:07:22.034Z,2.00
2023-05-05T15:09:48.468Z,1.77
2023-05-05T15:12:14.971Z,1.60
2023-05-05T15:14:41.686Z,1.45
2023-05-05T15:17:08.136Z,1.50
2023-05-05T15:19:43.004Z,1.77
2023-05-05T15:22:09.493Z,1.85
2023-05-05T15:24:36.029Z,1.70
2023-05-05T15:27:02.864Z,1.48
2023-05-05T15:29:29.309Z,1.70
2023-05-05T15:32:01.866Z,1.60
2023-05-05T15:34:28.332Z,1.70
2023-05-05T15:36:55.335Z,1.80
2023-05-05T15:39:21.722Z,1.88
2023-05-05T15:41:48.250Z,2.00
2023-05-05T15:44:14.645Z,1.73
2023-05-05T15:46:41.202Z,1.88
2023-05-05T15:49:07.683Z,1.92
2023-05-05T15:51:37.287Z,1.90
2023-05-05T15:54:03.855Z,2.08
2023-05-05T15:56:30.338Z,2.05
2023-05-05T15:58:59.664Z,2.10
2023-05-05T16:01:26.080Z,2.13
2023-05-05T16:03:52.507Z,1.73
2023-05-05T16:06:18.937Z,2.17
2023-05-05T16:08:47.651Z,2.00
2023-05-05T16:11:14.094Z,2.08
2023-05-05T16:13:40.548Z,2.10
2023-05-05T16:16:07.045Z,2.00
2023-05-05T16:18:33.712Z,2.10
2023-05-05T16:21:00.148Z,2.03
2023-05-05T16:23:26.575Z,2.00
2023-05-05T16:25:53.017Z,2.20
2023-05-05T16:28:19.450Z,3.63
2023-05-05T16:30:45.905Z,2.40
2023-05-05T16:33:12.309Z,2.50
2023-05-05T16:35:38.718Z,3.00
2023-05-05T16:38:05.151Z,2.78
2023-05-05T16:40:31.582Z,2.40
2023-05-05T16:42:58.006Z,2.78
2023-05-05T16:45:24.718Z,2.47
2023-05-05T16:47:51.236Z,3.00
2023-05-05T16:50:17.848Z,2.53
2023-05-05T16:52:44.254Z,2.15
2023-05-05T16:55:10.945Z,2.30
2023-05-05T16:57:37.837Z,2.70
2023-05-05T17:00:05.880Z,2.40
2023-05-05T17:04:58.975Z,2.50
2023-05-05T17:07:25.442Z,2.72
2023-05-05T17:09:51.917Z,2.85
2023-05-05T17:12:18.371Z,2.80
2023-05-05T17:14:47.966Z,3.05
2023-05-05T17:17:14.456Z,3.03
2023-05-05T17:19:42.577Z,3.03
2023-05-05T17:22:09.040Z,3.30
2023-05-05T17:24:35.605Z,3.28
2023-05-05T17:27:02.051Z,2.85
2023-05-05T17:29:28.502Z,3.38
2023-05-05T17:31:55.050Z,3.00
2023-05-05T17:34:21.924Z,2.95
2023-05-05T17:36:48.376Z,3.63
2023-05-05T17:39:14.818Z,3.15
2023-05-05T17:41:42.370Z,3.40
2023-05-05T17:44:08.864Z,3.42
2023-05-05T17:46:36.139Z,3.50
2023-05-05T17:49:02.840Z,3.90
2023-05-05T17:51:29.344Z,4.03
2023-05-05T17:53:56.128Z,3.78
2023-05-05T17:56:22.858Z,4.15
2023-05-05T17:58:55.158Z,4.40
2023-05-05T18:01:26.566Z,4.30
2023-05-05T18:03:53.145Z,4.28
2023-05-05T18:06:19.636Z,4.60
2023-05-05T18:08:46.584Z,5.05
2023-05-05T18:11:13.091Z,5.03
2023-05-05T18:13:42.578Z,5.20
2023-05-05T18:16:09.161Z,5.53
2023-05-05T18:18:36.201Z,5.65
2023-05-05T18:21:02.765Z,5.20
2023-05-05T18:23:29.301Z,5.47
2023-05-05T18:26:32.845Z,5.97
2023-05-05T18:28:59.435Z,6.05
2023-05-05T18:31:26.598Z,5.97
2023-05-05T18:33:53.633Z,5.68
2023-05-05T18:36:20.076Z,6.35
2023-05-05T18:38:46.664Z,5.43
2023-05-05T18:41:13.185Z,5.63
2023-05-05T18:43:39.631Z,6.45
2023-05-05T18:46:06.273Z,5.38
2023-05-05T18:48:40.259Z,5.13
2023-05-05T18:51:07.522Z,4.80
2023-05-05T18:53:36.987Z,4.07
2023-05-05T18:56:03.477Z,4.07
2023-05-05T18:58:30.561Z,4.13
2023-05-05T19:00:57.521Z,4.03
2023-05-05T19:03:23.969Z,4.20
2023-05-05T19:05:50.387Z,4.60
2023-05-05T19:08:58.570Z,4.82
2023-05-05T19:11:43.563Z,4.35
2023-05-05T19:14:10.019Z,4.30
2023-05-05T19:16:36.511Z,4.50
2023-05-05T19:19:03.149Z,5.30
2023-05-05T19:21:29.674Z,5.30
2023-05-05T19:24:20.966Z,3.90
2023-05-05T19:26:50.540Z,4.38
2023-05-05T19:29:17.178Z,4.22
2023-05-05T19:31:43.632Z,4.00
2023-05-05T19:34:10.209Z,4.30
2023-05-05T19:36:36.745Z,4.22
2023-05-05T19:39:04.533Z,2.25
2023-05-05T19:41:31.503Z,2.20
2023-05-05T19:44:29.180Z,2.10
2023-05-05T19:46:55.596Z,1.40
2023-05-05T19:49:22.105Z,1.58
2023-05-05T19:51:49.838Z,1.25
2023-05-05T19:54:16.555Z,1.48
2023-05-05T19:56:43.027Z,1.63
2023-05-05T19:59:09.561Z,1.60
2023-05-05T20:01:36.175Z,1.40
2023-05-05T20:04:03.739Z,1.83
2023-05-05T20:06:30.606Z,1.42
2023-05-05T20:08:57.124Z,1.33
2023-05-05T20:11:25.097Z,1.40
2023-05-05T20:13:51.792Z,1.40
2023-05-05T20:16:18.594Z,1.38
2023-05-05T20:18:45.301Z,1.55
2023-05-05T20:21:11.966Z,1.80
2023-05-05T20:23:38.584Z,1.50
2023-05-05T20:26:06.382Z,1.50
2023-05-05T20:28:33.061Z,1.65
2023-05-05T20:31:00.839Z,1.60
2023-05-05T20:41:44.538Z,1.70
2023-05-05T20:44:11.397Z,1.58
2023-05-05T20:49:27.332Z,1.42
2023-05-05T20:57:59.038Z,1.40
2023-05-05T21:00:38.577Z,1.55
2023-05-05T21:03:09.323Z,1.60
2023-05-05T21:05:53.514Z,1.40
2023-05-05T21:08:27.291Z,2.13
2023-05-05T21:11:00.095Z,1.70
2023-05-05T21:13:27.299Z,1.63
2023-05-05T21:15:55.211Z,1.80
2023-05-05T21:18:22.320Z,1.55
2023-05-05T21:20:49.634Z,1.70
2023-05-05T21:23:20.214Z,1.55
2023-05-05T21:25:47.455Z,1.50
2023-05-05T21:28:14.011Z,1.63
2023-05-05T21:30:40.617Z,1.55
2023-05-05T21:33:07.270Z,1.60
2023-05-05T21:35:33.833Z,1.60
2023-05-05T21:38:01.083Z,1.83
2023-05-05T21:40:28.240Z,1.73
2023-05-05T21:42:58.137Z,1.85
2023-05-05T21:45:27.773Z,1.77
2023-05-05T21:47:55.926Z,1.80
2023-05-05T21:50:22.531Z,1.70
2023-05-05T21:52:49.257Z,2.00
2023-05-05T21:55:16.328Z,1.85
2023-05-05T21:57:43.206Z,1.90
2023-05-05T22:00:10.705Z,1.95
2023-05-05T22:02:37.528Z,1.52
2023-05-05T22:05:04.484Z,1.60
2023-05-05T22:07:32.855Z,1.40
2023-05-05T22:09:59.734Z,1.77
2023-05-05T22:12:26.342Z,1.80
2023-05-05T22:14:53.149Z,1.50
2023-05-05T22:17:20.004Z,1.55
2023-05-05T22:19:46.882Z,1.67
2023-05-05T22:22:13.689Z,1.75
2023-05-05T22:24:40.843Z,1.80
2023-05-05T22:27:08.233Z,1.70
2023-05-05T22:29:34.919Z,1.65
2023-05-05T22:32:01.683Z,1.63
2023-05-05T22:34:28.606Z,1.90
2023-05-05T22:36:55.637Z,1.70
2023-05-05T22:39:22.779Z,1.98
2023-05-05T22:41:49.698Z,1.63
2023-05-05T22:44:20.544Z,1.80
2023-05-05T22:46:52.528Z,1.70
2023-05-05T22:49:22.726Z,1.80
2023-05-05T22:52:01.015Z,1.80
2023-05-05T22:54:27.519Z,1.67
2023-05-05T22:56:54.137Z,1.85
2023-05-05T22:59:20.698Z,1.73
2023-05-05T23:01:53.068Z,1.70
2023-05-05T23:04:19.597Z,1.80
2023-05-05T23:06:52.383Z,2.20
2023-05-05T23:09:28.374Z,1.80
2023-05-05T23:12:05.357Z,1.90
2023-05-05T23:14:34.157Z,1.95
2023-05-05T23:17:05.063Z,2.10
2023-05-05T23:19:37.630Z,2.03
2023-05-05T23:22:09.344Z,2.28
2023-05-05T23:24:49.301Z,1.90
2023-05-05T23:27:30.430Z,2.03
2023-05-05T23:30:01.075Z,2.17
2023-05-05T23:32:31.751Z,2.22
2023-05-05T23:35:04.969Z,2.10
2023-05-05T23:37:40.525Z,2.30
2023-05-05T23:40:10.574Z,2.40
2023-05-05T23:42:37.633Z,2.28
2023-05-05T23:45:05.479Z,2.22
2023-05-05T23:47:32.589Z,2.17
2023-05-05T23:50:00.598Z,2.40
2023-05-05T23:52:28.320Z,2.03
2023-05-05T23:54:55.572Z,2.60
2023-05-05T23:57:22.228Z,2.72
